sensor_id;sensor_type;location;lat;lon;timestamp;P1;durP1;ratioP1;P2;durP2;ratioP2
71083;SDS011;58741;52.672;13.548;2022-07-22T04:15:26;3.38;;;2.85;;
71083;SDS011;58741;52.672;13.548;2022-07-22T04:17:52;4.05;;;3.65;;
71083;SDS011;58741;52.672;13.548;2022-07-22T04:20:18;4.78;;;4.28;;
71083;SDS011;58741;52.672;13.548;2022-07-22T04:22:43;5.55;;;5.05;;
71083;SDS011;58741;52.672;13.548;2022-07-22T04:25:09;5.70;;;4.82;;
71083;SDS011;58741;52.672;13.548;2022-07-22T04:27:35;4.90;;;4.45;;
71083;SDS011;58741;52.672;13.548;2022-07-22T04:30:01;4.68;;;4.28;;
71083;SDS011;58741;52.672;13.548;2022-07-22T04:32:27;4.82;;;4.43;;
71083;SDS011;58741;52.672;13.548;2022-07-22T04:34:52;5.72;;;4.47;;
71083;SDS011;58741;52.672;13.548;2022-07-22T04:37:18;4.82;;;4.28;;
71083;SDS011;58741;52.672;13.548;2022-07-22T04:39:43;5.90;;;4.82;;
71083;SDS011;58741;52.672;13.548;2022-07-22T04:42:09;6.03;;;4.97;;
71083;SDS011;58741;52.672;13.548;2022-07-22T04:44:34;6.07;;;4.85;;
71083;SDS011;58741;52.672;13.548;2022-07-22T04:47:00;6.63;;;4.82;;
71083;SDS011;58741;52.672;13.548;2022-07-22T04:49:25;6.45;;;5.85;;
71083;SDS011;58741;52.672;13.548;2022-07-22T04:51:51;5.28;;;4.78;;
71083;SDS011;58741;52.672;13.548;2022-07-22T04:54:16;5.90;;;5.35;;
71083;SDS011;58741;52.672;13.548;2022-07-22T04:56:42;5.30;;;4.80;;
71083;SDS011;58741;52.672;13.548;2022-07-22T04:59:08;5.90;;;4.25;;
71083;SDS011;58741;52.672;13.548;2022-07-22T05:01:33;5.60;;;5.07;;
71083;SDS011;58741;52.672;13.548;2022-07-22T05:03:59;5.10;;;4.60;;
71083;SDS011;58741;52.672;13.548;2022-07-22T05:06:24;6.75;;;5.95;;
71083;SDS011;58741;52.672;13.548;2022-07-22T05:08:50;7.18;;;6.47;;
71083;SDS011;58741;52.672;13.548;2022-07-22T05:11:15;6.97;;;6.28;;
71083;SDS011;58741;52.672;13.548;2022-07-22T05:13:41;6.07;;;5.35;;
71083;SDS011;58741;52.672;13.548;2022-07-22T05:16:06;5.70;;;5.10;;
71083;SDS011;58741;52.672;13.548;2022-07-22T05:18:33;5.57;;;5.07;;
71083;SDS011;58741;52.672;13.548;2022-07-22T05:20:59;6.10;;;5.53;;
71083;SDS011;58741;52.672;13.548;2022-07-22T05:23:25;5.95;;;5.45;;
71083;SDS011;58741;52.672;13.548;2022-07-22T05:25:51;6.40;;;5.80;;
71083;SDS011;58741;52.672;13.548;2022-07-22T05:28:16;6.05;;;5.45;;
71083;SDS011;58741;52.672;13.548;2022-07-22T05:30:42;6.28;;;5.70;;
71083;SDS011;58741;52.672;13.548;2022-07-22T05:33:07;6.93;;;5.35;;
71083;SDS011;58741;52.672;13.548;2022-07-22T05:35:33;8.52;;;7.63;;
71083;SDS011;58741;52.672;13.548;2022-07-22T05:37:58;6.40;;;5.80;;
71083;SDS011;58741;52.672;13.548;2022-07-22T05:40:24;5.90;;;5.40;;
71083;SDS011;58741;52.672;13.548;2022-07-22T05:42:49;9.52;;;7.88;;
71083;SDS011;58741;52.672;13.548;2022-07-22T05:45:15;7.88;;;7.15;;
71083;SDS011;58741;52.672;13.548;2022-07-22T05:47:40;7.20;;;6.50;;
71083;SDS011;58741;52.672;13.548;2022-07-22T05:50:06;8.68;;;7.55;;
71083;SDS011;58741;52.672;13.548;2022-07-22T05:52:32;8.98;;;8.18;;
71083;SDS011;58741;52.672;13.548;2022-07-22T05:55:00;9.40;;;7.43;;
71083;SDS011;58741;52.672;13.548;2022-07-22T05:57:25;8.85;;;7.97;;
71083;SDS011;58741;52.672;13.548;2022-07-22T05:59:51;8.75;;;7.90;;
71083;SDS011;58741;52.672;13.548;2022-07-22T06:02:16;9.43;;;8.45;;
71083;SDS011;58741;52.672;13.548;2022-07-22T06:04:42;9.43;;;8.48;;
71083;SDS011;58741;52.672;13.548;2022-07-22T06:07:07;8.18;;;7.30;;
71083;SDS011;58741;52.672;13.548;2022-07-22T06:09:33;7.72;;;7.03;;
71083;SDS011;58741;52.672;13.548;2022-07-22T06:11:59;7.55;;;6.85;;
71083;SDS011;58741;52.672;13.548;2022-07-22T06:14:24;8.02;;;7.15;;
71083;SDS011;58741;52.672;13.548;2022-07-22T06:16:50;7.65;;;6.88;;
71083;SDS011;58741;52.672;13.548;2022-07-22T06:19:15;10.63;;;7.55;;
71083;SDS011;58741;52.672;13.548;2022-07-22T06:21:41;7.45;;;6.75;;
71083;SDS011;58741;52.672;13.548;2022-07-22T06:24:06;6.07;;;5.57;;
71083;SDS011;58741;52.672;13.548;2022-07-22T06:26:32;6.78;;;6.05;;
71083;SDS011;58741;52.672;13.548;2022-07-22T06:28:57;6.78;;;6.18;;
71083;SDS011;58741;52.672;13.548;2022-07-22T06:31:23;5.93;;;5.43;;
71083;SDS011;58741;52.672;13.548;2022-07-22T06:33:48;6.10;;;5.60;;
71083;SDS011;58741;52.672;13.548;2022-07-22T06:36:14;6.80;;;6.10;;
71083;SDS011;58741;52.672;13.548;2022-07-22T06:38:40;7.53;;;6.57;;
71083;SDS011;58741;52.672;13.548;2022-07-22T06:41:05;8.68;;;7.78;;
71083;SDS011;58741;52.672;13.548;2022-07-22T06:43:31;6.38;;;5.88;;
71083;SDS011;58741;52.672;13.548;2022-07-22T06:45:56;6.10;;;5.57;;
71083;SDS011;58741;52.672;13.548;2022-07-22T06:48:22;6.70;;;6.10;;
71083;SDS011;58741;52.672;13.548;2022-07-22T06:50:47;5.95;;;5.43;;
71083;SDS011;58741;52.672;13.548;2022-07-22T06:53:13;7.70;;;5.82;;
71083;SDS011;58741;52.672;13.548;2022-07-22T06:55:38;8.90;;;8.10;;
71083;SDS011;58741;52.672;13.548;2022-07-22T06:58:04;6.82;;;6.20;;
71083;SDS011;58741;52.672;13.548;2022-07-22T07:00:30;6.85;;;6.15;;
71083;SDS011;58741;52.672;13.548;2022-07-22T07:02:59;6.22;;;5.63;;
71083;SDS011;58741;52.672;13.548;2022-07-22T07:05:25;6.78;;;6.18;;
71083;SDS011;58741;52.672;13.548;2022-07-22T07:07:52;6.38;;;5.78;;
71083;SDS011;58741;52.672;13.548;2022-07-22T07:10:18;5.78;;;5.22;;
71083;SDS011;58741;52.672;13.548;2022-07-22T07:12:43;6.40;;;5.80;;
71083;SDS011;58741;52.672;13.548;2022-07-22T07:15:09;6.53;;;5.93;;
71083;SDS011;58741;52.672;13.548;2022-07-22T07:17:35;8.25;;;6.90;;
71083;SDS011;58741;52.672;13.548;2022-07-22T07:20:01;7.60;;;6.90;;
71083;SDS011;58741;52.672;13.548;2022-07-22T07:22:26;7.13;;;6.43;;
71083;SDS011;58741;52.672;13.548;2022-07-22T07:24:52;7.97;;;6.07;;
71083;SDS011;58741;52.672;13.548;2022-07-22T07:27:17;10.15;;;6.28;;
71083;SDS011;58741;52.672;13.548;2022-07-22T07:29:43;11.40;;;5.43;;
71083;SDS011;58741;52.672;13.548;2022-07-22T07:32:08;5.93;;;5.30;;
71083;SDS011;58741;52.672;13.548;2022-07-22T07:34:34;6.55;;;5.35;;
71083;SDS011;58741;52.672;13.548;2022-07-22T07:36:59;5.47;;;4.97;;
71083;SDS011;58741;52.672;13.548;2022-07-22T07:39:25;7.25;;;5.70;;
71083;SDS011;58741;52.672;13.548;2022-07-22T07:41:50;7.22;;;5.80;;
71083;SDS011;58741;52.672;13.548;2022-07-22T07:44:17;30.00;;;6.35;;
71083;SDS011;58741;52.672;13.548;2022-07-22T07:46:43;9.63;;;5.43;;
71083;SDS011;58741;52.672;13.548;2022-07-22T07:49:08;9.30;;;5.57;;
71083;SDS011;58741;52.672;13.548;2022-07-22T07:51:34;5.28;;;4.78;;
71083;SDS011;58741;52.672;13.548;2022-07-22T07:54:00;5.47;;;4.97;;
71083;SDS011;58741;52.672;13.548;2022-07-22T07:56:25;7.18;;;5.10;;
71083;SDS011;58741;52.672;13.548;2022-07-22T07:58:51;38.30;;;5.93;;
71083;SDS011;58741;52.672;13.548;2022-07-22T08:01:16;10.90;;;5.30;;
71083;SDS011;58741;52.672;13.548;2022-07-22T08:03:42;5.35;;;4.85;;
71083;SDS011;58741;52.672;13.548;2022-07-22T08:06:07;4.20;;;3.80;;
71083;SDS011;58741;52.672;13.548;2022-07-22T08:08:33;6.45;;;4.88;;
71083;SDS011;58741;52.672;13.548;2022-07-22T08:10:58;9.00;;;4.25;;
71083;SDS011;58741;52.672;13.548;2022-07-22T08:13:24;6.85;;;4.50;;
71083;SDS011;58741;52.672;13.548;2022-07-22T08:15:50;4.72;;;4.32;;
71083;SDS011;58741;52.672;13.548;2022-07-22T08:18:15;7.20;;;4.20;;
71083;SDS011;58741;52.672;13.548;2022-07-22T08:20:41;5.97;;;4.00;;
71083;SDS011;58741;52.672;13.548;2022-07-22T08:23:06;5.00;;;3.60;;
71083;SDS011;58741;52.672;13.548;2022-07-22T08:25:32;3.75;;;3.45;;
71083;SDS011;58741;52.672;13.548;2022-07-22T08:27:57;4.18;;;3.58;;
71083;SDS011;58741;52.672;13.548;2022-07-22T08:30:24;4.40;;;4.00;;
71083;SDS011;58741;52.672;13.548;2022-07-22T08:32:52;5.85;;;4.15;;
71083;SDS011;58741;52.672;13.548;2022-07-22T08:35:17;5.80;;;3.50;;
71083;SDS011;58741;52.672;13.548;2022-07-22T08:37:43;7.80;;;4.30;;
71083;SDS011;58741;52.672;13.548;2022-07-22T08:40:11;4.00;;;3.60;;
71083;SDS011;58741;52.672;13.548;2022-07-22T08:42:37;3.55;;;3.25;;
71083;SDS011;58741;52.672;13.548;2022-07-22T08:45:05;3.08;;;2.88;;
71083;SDS011;58741;52.672;13.548;2022-07-22T08:47:32;4.07;;;3.38;;
71083;SDS011;58741;52.672;13.548;2022-07-22T08:49:58;5.95;;;3.70;;
71083;SDS011;58741;52.672;13.548;2022-07-22T08:52:24;7.68;;;3.50;;
71083;SDS011;58741;52.672;13.548;2022-07-22T08:54:49;4.18;;;3.20;;
71083;SDS011;58741;52.672;13.548;2022-07-22T08:57:15;4.30;;;3.90;;
71083;SDS011;58741;52.672;13.548;2022-07-22T08:59:51;3.67;;;3.38;;
71083;SDS011;58741;52.672;13.548;2022-07-22T09:02:19;3.50;;;3.20;;
71083;SDS011;58741;52.672;13.548;2022-07-22T09:07:23;4.00;;;3.70;;
71083;SDS011;58741;52.672;13.548;2022-07-22T09:09:57;5.25;;;3.67;;
71083;SDS011;58741;52.672;13.548;2022-07-22T09:12:24;4.28;;;3.60;;
71083;SDS011;58741;52.672;13.548;2022-07-22T09:14:53;3.42;;;3.13;;
71083;SDS011;58741;52.672;13.548;2022-07-22T09:19:51;6.10;;;3.38;;
71083;SDS011;58741;52.672;13.548;2022-07-22T09:22:30;4.95;;;3.10;;
71083;SDS011;58741;52.672;13.548;2022-07-22T09:27:52;4.30;;;3.90;;
71083;SDS011;58741;52.672;13.548;2022-07-22T09:30:20;4.40;;;4.00;;
71083;SDS011;58741;52.672;13.548;2022-07-22T09:32:48;4.00;;;3.70;;
71083;SDS011;58741;52.672;13.548;2022-07-22T09:35:14;5.30;;;4.38;;
71083;SDS011;58741;52.672;13.548;2022-07-22T09:37:48;4.20;;;3.90;;
71083;SDS011;58741;52.672;13.548;2022-07-22T09:40:16;4.85;;;4.45;;
71083;SDS011;58741;52.672;13.548;2022-07-22T09:42:47;4.32;;;3.92;;
71083;SDS011;58741;52.672;13.548;2022-07-22T09:45:15;4.45;;;3.58;;
71083;SDS011;58741;52.672;13.548;2022-07-22T09:47:41;4.05;;;3.70;;
71083;SDS011;58741;52.672;13.548;2022-07-22T09:50:19;3.70;;;3.30;;
71083;SDS011;58741;52.672;13.548;2022-07-22T09:52:45;4.22;;;3.88;;
71083;SDS011;58741;52.672;13.548;2022-07-22T09:55:12;6.63;;;3.92;;
71083;SDS011;58741;52.672;13.548;2022-07-22T09:57:38;4.10;;;3.80;;
71083;SDS011;58741;52.672;13.548;2022-07-22T10:00:04;7.82;;;4.10;;
71083;SDS011;58741;52.672;13.548;2022-07-22T10:02:33;4.63;;;4.22;;
71083;SDS011;58741;52.672;13.548;2022-07-22T10:05:05;3.72;;;3.42;;
71083;SDS011;58741;52.672;13.548;2022-07-22T10:07:31;4.20;;;3.80;;
71083;SDS011;58741;52.672;13.548;2022-07-22T10:09:58;4.35;;;3.95;;
71083;SDS011;58741;52.672;13.548;2022-07-22T10:12:24;3.95;;;3.65;;
71083;SDS011;58741;52.672;13.548;2022-07-22T10:14:52;4.15;;;3.50;;
71083;SDS011;58741;52.672;13.548;2022-07-22T10:17:17;3.60;;;3.30;;
71083;SDS011;58741;52.672;13.548;2022-07-22T10:19:44;3.28;;;2.97;;
71083;SDS011;58741;52.672;13.548;2022-07-22T10:25:03;3.15;;;2.85;;
71083;SDS011;58741;52.672;13.548;2022-07-22T10:30:12;1.90;;;1.80;;
71083;SDS011;58741;52.672;13.548;2022-07-22T10:32:38;1.83;;;1.73;;
71083;SDS011;58741;52.672;13.548;2022-07-22T10:35:18;1.80;;;1.70;;
71083;SDS011;58741;52.672;13.548;2022-07-22T10:37:48;5.88;;;1.40;;
71083;SDS011;58741;52.672;13.548;2022-07-22T10:40:19;2.10;;;1.60;;
71083;SDS011;58741;52.672;13.548;2022-07-22T10:45:30;5.10;;;1.60;;
71083;SDS011;58741;52.672;13.548;2022-07-22T10:47:57;1.83;;;1.73;;
71083;SDS011;58741;52.672;13.548;2022-07-22T10:53:49;2.05;;;1.95;;
71083;SDS011;58741;52.672;13.548;2022-07-22T10:58:47;3.35;;;2.08;;
71083;SDS011;58741;52.672;13.548;2022-07-22T11:01:16;1.85;;;1.75;;
71083;SDS011;58741;52.672;13.548;2022-07-22T11:03:44;2.20;;;2.10;;
71083;SDS011;58741;52.672;13.548;2022-07-22T11:06:15;2.15;;;2.05;;
71083;SDS011;58741;52.672;13.548;2022-07-22T11:08:43;2.20;;;2.10;;
71083;SDS011;58741;52.672;13.548;2022-07-22T11:11:10;4.72;;;2.10;;
71083;SDS011;58741;52.672;13.548;2022-07-22T11:13:36;2.70;;;2.50;;
71083;SDS011;58741;52.672;13.548;2022-07-22T11:16:22;3.00;;;2.78;;
71083;SDS011;58741;52.672;13.548;2022-07-22T11:18:59;2.85;;;2.30;;
71083;SDS011;58741;52.672;13.548;2022-07-22T11:21:27;2.58;;;2.38;;
71083;SDS011;58741;52.672;13.548;2022-07-22T11:23:55;3.70;;;3.28;;
71083;SDS011;58741;52.672;13.548;2022-07-22T11:29:04;3.10;;;2.80;;
71083;SDS011;58741;52.672;13.548;2022-07-22T11:31:29;3.60;;;3.30;;
71083;SDS011;58741;52.672;13.548;2022-07-22T11:34:14;4.68;;;3.05;;
71083;SDS011;58741;52.672;13.548;2022-07-22T11:36:41;3.13;;;2.92;;
71083;SDS011;58741;52.672;13.548;2022-07-22T11:39:09;4.40;;;3.03;;
71083;SDS011;58741;52.672;13.548;2022-07-22T11:41:36;3.40;;;3.10;;
71083;SDS011;58741;52.672;13.548;2022-07-22T11:44:02;4.05;;;3.65;;
71083;SDS011;58741;52.672;13.548;2022-07-22T11:46:34;3.55;;;3.25;;
71083;SDS011;58741;52.672;13.548;2022-07-22T11:49:01;5.90;;;3.65;;
71083;SDS011;58741;52.672;13.548;2022-07-22T11:51:28;3.58;;;3.28;;
71083;SDS011;58741;52.672;13.548;2022-07-22T11:53:55;3.47;;;3.28;;
71083;SDS011;58741;52.672;13.548;2022-07-22T11:56:22;3.88;;;3.58;;
71083;SDS011;58741;52.672;13.548;2022-07-22T11:58:48;6.55;;;3.70;;
71083;SDS011;58741;52.672;13.548;2022-07-22T12:01:16;3.30;;;3.10;;
71083;SDS011;58741;52.672;13.548;2022-07-22T12:03:46;4.65;;;3.30;;
71083;SDS011;58741;52.672;13.548;2022-07-22T12:06:14;3.22;;;3.03;;
71083;SDS011;58741;52.672;13.548;2022-07-22T12:09:25;3.47;;;3.05;;
71083;SDS011;58741;52.672;13.548;2022-07-22T12:11:32;4.13;;;3.40;;
71083;SDS011;58741;52.672;13.548;2022-07-22T12:14:04;3.55;;;3.30;;
71083;SDS011;58741;52.672;13.548;2022-07-22T12:16:34;3.13;;;2.92;;
71083;SDS011;58741;52.672;13.548;2022-07-22T12:19:08;3.17;;;2.88;;
71083;SDS011;58741;52.672;13.548;2022-07-22T12:21:54;2.90;;;2.70;;
71083;SDS011;58741;52.672;13.548;2022-07-22T12:24:31;3.50;;;3.20;;
71083;SDS011;58741;52.672;13.548;2022-07-22T12:27:11;4.05;;;2.90;;
71083;SDS011;58741;52.672;13.548;2022-07-22T12:34:39;2.30;;;2.20;;
71083;SDS011;58741;52.672;13.548;2022-07-22T12:37:19;2.15;;;1.98;;
71083;SDS011;58741;52.672;13.548;2022-07-22T12:44:53;2.53;;;1.83;;
71083;SDS011;58741;52.672;13.548;2022-07-22T12:47:48;2.05;;;1.95;;
71083;SDS011;58741;52.672;13.548;2022-07-22T12:50:39;2.08;;;1.98;;
71083;SDS011;58741;52.672;13.548;2022-07-22T12:53:13;1.90;;;1.80;;
71083;SDS011;58741;52.672;13.548;2022-07-22T12:55:40;2.65;;;1.70;;
71083;SDS011;58741;52.672;13.548;2022-07-22T12:58:08;2.15;;;1.95;;
71083;SDS011;58741;52.672;13.548;2022-07-22T13:00:38;1.48;;;1.38;;
71083;SDS011;58741;52.672;13.548;2022-07-22T13:03:30;2.35;;;1.77;;
71083;SDS011;58741;52.672;13.548;2022-07-22T13:05:58;1.80;;;1.70;;
71083;SDS011;58741;52.672;13.548;2022-07-22T13:08:25;2.45;;;2.25;;
71083;SDS011;58741;52.672;13.548;2022-07-22T13:10:53;1.70;;;1.60;;
71083;SDS011;58741;52.672;13.548;2022-07-22T13:13:19;1.80;;;1.70;;
71083;SDS011;58741;52.672;13.548;2022-07-22T13:15:45;2.10;;;1.90;;
71083;SDS011;58741;52.672;13.548;2022-07-22T13:18:11;2.35;;;1.90;;
71083;SDS011;58741;52.672;13.548;2022-07-22T13:20:37;2.10;;;1.90;;
71083;SDS011;58741;52.672;13.548;2022-07-22T13:23:03;1.75;;;1.65;;
71083;SDS011;58741;52.672;13.548;2022-07-22T13:25:29;1.83;;;1.73;;
71083;SDS011;58741;52.672;13.548;2022-07-22T13:27:55;1.70;;;1.60;;
71083;SDS011;58741;52.672;13.548;2022-07-22T13:30:21;1.83;;;1.73;;
71083;SDS011;58741;52.672;13.548;2022-07-22T13:32:47;1.90;;;1.65;;
71083;SDS011;58741;52.672;13.548;2022-07-22T13:35:12;1.98;;;1.85;;
71083;SDS011;58741;52.672;13.548;2022-07-22T13:37:38;7.90;;;2.05;;
71083;SDS011;58741;52.672;13.548;2022-07-22T13:40:04;32.83;;;2.80;;
71083;SDS011;58741;52.672;13.548;2022-07-22T13:42:30;37.33;;;3.10;;
71083;SDS011;58741;52.672;13.548;2022-07-22T13:44:56;4.47;;;1.67;;
71083;SDS011;58741;52.672;13.548;2022-07-22T13:47:22;3.28;;;1.52;;
71083;SDS011;58741;52.672;13.548;2022-07-22T13:49:48;1.77;;;1.67;;
71083;SDS011;58741;52.672;13.548;2022-07-22T13:52:14;2.22;;;1.50;;
71083;SDS011;58741;52.672;13.548;2022-07-22T13:54:40;14.38;;;1.85;;
71083;SDS011;58741;52.672;13.548;2022-07-22T13:57:06;9.15;;;1.70;;
71083;SDS011;58741;52.672;13.548;2022-07-22T13:59:32;9.43;;;1.60;;
71083;SDS011;58741;52.672;13.548;2022-07-22T14:01:58;1.27;;;1.17;;
71083;SDS011;58741;52.672;13.548;2022-07-22T14:04:26;1.60;;;1.00;;
71083;SDS011;58741;52.672;13.548;2022-07-22T14:06:52;2.42;;;1.30;;
71083;SDS011;58741;52.672;13.548;2022-07-22T14:09:17;2.78;;;1.40;;
71083;SDS011;58741;52.672;13.548;2022-07-22T14:11:43;1.95;;;1.15;;
71083;SDS011;58741;52.672;13.548;2022-07-22T14:14:08;2.35;;;1.20;;
71083;SDS011;58741;52.672;13.548;2022-07-22T14:16:34;1.42;;;1.33;;
71083;SDS011;58741;52.672;13.548;2022-07-22T14:19:04;1.58;;;1.05;;
71083;SDS011;58741;52.672;13.548;2022-07-22T14:21:32;2.05;;;1.40;;
71083;SDS011;58741;52.672;13.548;2022-07-22T14:23:58;2.40;;;1.45;;
71083;SDS011;58741;52.672;13.548;2022-07-22T14:26:24;1.50;;;1.40;;
71083;SDS011;58741;52.672;13.548;2022-07-22T14:28:50;1.30;;;1.20;;
71083;SDS011;58741;52.672;13.548;2022-07-22T14:31:16;1.58;;;1.48;;
71083;SDS011;58741;52.672;13.548;2022-07-22T14:33:41;1.20;;;1.20;;
71083;SDS011;58741;52.672;13.548;2022-07-22T14:36:07;1.52;;;1.27;;
71083;SDS011;58741;52.672;13.548;2022-07-22T14:38:33;1.83;;;0.90;;
71083;SDS011;58741;52.672;13.548;2022-07-22T14:40:58;1.20;;;1.00;;
71083;SDS011;58741;52.672;13.548;2022-07-22T14:43:24;1.20;;;1.10;;
71083;SDS011;58741;52.672;13.548;2022-07-22T14:45:50;1.10;;;1.10;;
71083;SDS011;58741;52.672;13.548;2022-07-22T14:48:15;1.08;;;0.98;;
71083;SDS011;58741;52.672;13.548;2022-07-22T14:50:41;7.68;;;1.00;;
71083;SDS011;58741;52.672;13.548;2022-07-22T14:53:07;1.90;;;1.00;;
71083;SDS011;58741;52.672;13.548;2022-07-22T14:55:32;0.93;;;0.93;;
71083;SDS011;58741;52.672;13.548;2022-07-22T14:57:58;0.90;;;0.90;;
71083;SDS011;58741;52.672;13.548;2022-07-22T15:00:23;1.15;;;1.05;;
71083;SDS011;58741;52.672;13.548;2022-07-22T15:02:49;1.10;;;1.00;;
71083;SDS011;58741;52.672;13.548;2022-07-22T15:05:14;1.10;;;1.00;;
71083;SDS011;58741;52.672;13.548;2022-07-22T15:07:40;0.98;;;0.93;;
71083;SDS011;58741;52.672;13.548;2022-07-22T15:10:06;1.90;;;1.08;;
71083;SDS011;58741;52.672;13.548;2022-07-22T15:12:32;1.17;;;1.00;;
71083;SDS011;58741;52.672;13.548;2022-07-22T15:14:58;2.40;;;1.00;;
71083;SDS011;58741;52.672;13.548;2022-07-22T15:17:23;0.90;;;0.90;;
71083;SDS011;58741;52.672;13.548;2022-07-22T15:19:49;0.90;;;0.90;;
71083;SDS011;58741;52.672;13.548;2022-07-22T15:22:14;0.90;;;0.90;;
71083;SDS011;58741;52.672;13.548;2022-07-22T15:24:40;1.88;;;0.85;;
71083;SDS011;58741;52.672;13.548;2022-07-22T15:27:05;2.35;;;1.00;;
71083;SDS011;58741;52.672;13.548;2022-07-22T15:29:31;0.65;;;0.65;;
71083;SDS011;58741;52.672;13.548;2022-07-22T15:31:56;0.80;;;0.80;;
71083;SDS011;58741;52.672;13.548;2022-07-22T15:34:22;2.35;;;0.90;;
71083;SDS011;58741;52.672;13.548;2022-07-22T15:36:47;1.00;;;0.93;;
71083;SDS011;58741;52.672;13.548;2022-07-22T15:39:13;0.98;;;0.93;;
71083;SDS011;58741;52.672;13.548;2022-07-22T15:41:39;1.20;;;1.10;;
71083;SDS011;58741;52.672;13.548;2022-07-22T15:44:06;3.17;;;1.20;;
71083;SDS011;58741;52.672;13.548;2022-07-22T15:46:31;1.38;;;1.27;;
71083;SDS011;58741;52.672;13.548;2022-07-22T15:48:57;1.25;;;1.10;;
71083;SDS011;58741;52.672;13.548;2022-07-22T15:51:24;1.00;;;1.00;;
71083;SDS011;58741;52.672;13.548;2022-07-22T15:53:49;1.67;;;1.00;;
71083;SDS011;58741;52.672;13.548;2022-07-22T15:56:15;1.02;;;1.02;;
71083;SDS011;58741;52.672;13.548;2022-07-22T15:58:42;1.33;;;1.23;;
71083;SDS011;58741;52.672;13.548;2022-07-22T16:01:27;4.15;;;1.25;;
71083;SDS011;58741;52.672;13.548;2022-07-22T16:03:52;1.05;;;1.00;;
71083;SDS011;58741;52.672;13.548;2022-07-22T16:06:18;1.00;;;1.00;;
71083;SDS011;58741;52.672;13.548;2022-07-22T16:08:43;1.48;;;1.10;;
71083;SDS011;58741;52.672;13.548;2022-07-22T16:11:09;2.53;;;1.20;;
71083;SDS011;58741;52.672;13.548;2022-07-22T16:13:34;1.17;;;1.08;;
71083;SDS011;58741;52.672;13.548;2022-07-22T16:16:00;15.07;;;1.67;;
71083;SDS011;58741;52.672;13.548;2022-07-22T16:18:25;11.82;;;1.38;;
71083;SDS011;58741;52.672;13.548;2022-07-22T16:20:51;2.28;;;1.17;;
71083;SDS011;58741;52.672;13.548;2022-07-22T16:23:16;1.40;;;1.30;;
71083;SDS011;58741;52.672;13.548;2022-07-22T16:25:42;1.27;;;1.17;;
71083;SDS011;58741;52.672;13.548;2022-07-22T16:28:07;2.85;;;1.30;;
71083;SDS011;58741;52.672;13.548;2022-07-22T16:30:33;1.40;;;1.30;;
71083;SDS011;58741;52.672;13.548;2022-07-22T16:32:58;1.08;;;1.08;;
71083;SDS011;58741;52.672;13.548;2022-07-22T16:35:24;1.45;;;0.93;;
71083;SDS011;58741;52.672;13.548;2022-07-22T16:37:50;1.60;;;1.13;;
71083;SDS011;58741;52.672;13.548;2022-07-22T16:40:15;1.10;;;0.98;;
71083;SDS011;58741;52.672;13.548;2022-07-22T16:42:41;5.70;;;1.10;;
71083;SDS011;58741;52.672;13.548;2022-07-22T16:45:07;1.92;;;0.90;;
71083;SDS011;58741;52.672;13.548;2022-07-22T16:47:33;1.17;;;1.08;;
71083;SDS011;58741;52.672;13.548;2022-07-22T16:49:58;6.15;;;1.30;;
71083;SDS011;58741;52.672;13.548;2022-07-22T16:52:24;1.90;;;1.20;;
71083;SDS011;58741;52.672;13.548;2022-07-22T16:54:50;4.45;;;1.25;;
71083;SDS011;58741;52.672;13.548;2022-07-22T16:57:16;2.40;;;1.10;;
71083;SDS011;58741;52.672;13.548;2022-07-22T16:59:42;2.45;;;1.33;;
71083;SDS011;58741;52.672;13.548;2022-07-22T17:02:08;1.13;;;1.02;;
71083;SDS011;58741;52.672;13.548;2022-07-22T17:04:35;1.38;;;1.10;;
71083;SDS011;58741;52.672;13.548;2022-07-22T17:07:00;1.63;;;1.38;;
71083;SDS011;58741;52.672;13.548;2022-07-22T17:09:26;1.70;;;1.27;;
71083;SDS011;58741;52.672;13.548;2022-07-22T17:11:52;1.08;;;1.08;;
71083;SDS011;58741;52.672;13.548;2022-07-22T17:14:18;1.60;;;1.50;;
71083;SDS011;58741;52.672;13.548;2022-07-22T17:16:44;5.65;;;1.50;;
71083;SDS011;58741;52.672;13.548;2022-07-22T17:19:09;2.38;;;1.60;;
71083;SDS011;58741;52.672;13.548;2022-07-22T17:21:35;2.67;;;1.60;;
71083;SDS011;58741;52.672;13.548;2022-07-22T17:24:01;3.47;;;1.75;;
71083;SDS011;58741;52.672;13.548;2022-07-22T17:26:27;2.30;;;1.40;;
71083;SDS011;58741;52.672;13.548;2022-07-22T17:28:52;1.58;;;1.48;;
71083;SDS011;58741;52.672;13.548;2022-07-22T17:31:19;14.43;;;1.85;;
71083;SDS011;58741;52.672;13.548;2022-07-22T17:33:45;18.00;;;2.25;;
71083;SDS011;58741;52.672;13.548;2022-07-22T17:36:11;36.47;;;3.28;;
71083;SDS011;58741;52.672;13.548;2022-07-22T17:38:37;3.33;;;1.40;;
71083;SDS011;58741;52.672;13.548;2022-07-22T17:41:02;2.70;;;1.63;;
71083;SDS011;58741;52.672;13.548;2022-07-22T17:43:28;14.40;;;1.67;;
71083;SDS011;58741;52.672;13.548;2022-07-22T17:45:54;4.07;;;1.88;;
71083;SDS011;58741;52.672;13.548;2022-07-22T17:48:19;3.38;;;1.50;;
71083;SDS011;58741;52.672;13.548;2022-07-22T17:50:46;1.60;;;1.50;;
71083;SDS011;58741;52.672;13.548;2022-07-22T17:53:11;1.83;;;1.63;;
71083;SDS011;58741;52.672;13.548;2022-07-22T17:55:37;2.17;;;1.40;;
71083;SDS011;58741;52.672;13.548;2022-07-22T17:58:04;14.85;;;2.13;;
71083;SDS011;58741;52.672;13.548;2022-07-22T18:00:29;4.43;;;1.90;;
71083;SDS011;58741;52.672;13.548;2022-07-22T18:02:57;186.18;;;10.73;;
71083;SDS011;58741;52.672;13.548;2022-07-22T18:05:24;450.25;;;28.83;;
71083;SDS011;58741;52.672;13.548;2022-07-22T18:07:49;50.03;;;5.13;;
71083;SDS011;58741;52.672;13.548;2022-07-22T18:10:15;74.75;;;5.45;;
71083;SDS011;58741;52.672;13.548;2022-07-22T18:12:40;29.67;;;3.85;;
71083;SDS011;58741;52.672;13.548;2022-07-22T18:15:06;10.35;;;1.70;;
71083;SDS011;58741;52.672;13.548;2022-07-22T18:17:32;2.83;;;1.73;;
71083;SDS011;58741;52.672;13.548;2022-07-22T18:19:59;4.00;;;1.60;;
71083;SDS011;58741;52.672;13.548;2022-07-22T18:22:28;3.67;;;1.50;;
71083;SDS011;58741;52.672;13.548;2022-07-22T18:24:54;7.32;;;1.83;;
71083;SDS011;58741;52.672;13.548;2022-07-22T18:27:20;13.45;;;2.03;;
71083;SDS011;58741;52.672;13.548;2022-07-22T18:29:46;21.40;;;2.30;;
71083;SDS011;58741;52.672;13.548;2022-07-22T18:32:11;4.30;;;1.52;;
71083;SDS011;58741;52.672;13.548;2022-07-22T18:34:37;3.22;;;1.63;;
71083;SDS011;58741;52.672;13.548;2022-07-22T18:37:02;1.88;;;1.73;;
71083;SDS011;58741;52.672;13.548;2022-07-22T18:39:28;12.05;;;2.58;;
71083;SDS011;58741;52.672;13.548;2022-07-22T18:41:54;13.85;;;2.20;;
71083;SDS011;58741;52.672;13.548;2022-07-22T18:44:19;2.83;;;1.77;;
71083;SDS011;58741;52.672;13.548;2022-07-22T18:46:45;3.38;;;1.60;;
71083;SDS011;58741;52.672;13.548;2022-07-22T18:49:10;2.08;;;1.88;;
71083;SDS011;58741;52.672;13.548;2022-07-22T18:51:36;2.50;;;1.65;;
71083;SDS011;58741;52.672;13.548;2022-07-22T18:54:01;1.80;;;1.70;;
71083;SDS011;58741;52.672;13.548;2022-07-22T18:56:27;2.55;;;1.88;;
71083;SDS011;58741;52.672;13.548;2022-07-22T18:58:52;2.30;;;2.10;;
71083;SDS011;58741;52.672;13.548;2022-07-22T19:01:19;2.53;;;1.92;;
71083;SDS011;58741;52.672;13.548;2022-07-22T19:03:44;2.17;;;1.98;;
71083;SDS011;58741;52.672;13.548;2022-07-22T19:06:10;2.28;;;2.08;;
71083;SDS011;58741;52.672;13.548;2022-07-22T19:08:36;2.33;;;1.95;;
71083;SDS011;58741;52.672;13.548;2022-07-22T19:11:02;2.40;;;2.20;;
71083;SDS011;58741;52.672;13.548;2022-07-22T19:13:28;3.85;;;1.92;;
71083;SDS011;58741;52.672;13.548;2022-07-22T19:15:54;4.20;;;2.00;;
71083;SDS011;58741;52.672;13.548;2022-07-22T19:18:20;2.53;;;2.17;;
71083;SDS011;58741;52.672;13.548;2022-07-22T19:20:49;2.45;;;2.25;;